Time;durP1;ratioP1;P1;durP2;ratioP2;P2;SDS_P1;SDS_P2;PMS_P1;PMS_P2;Temp;Humidity;BMP_temperature;BMP_pressure;BME280_temperature;BME280_humidity;BME280_pressure;Samples;Min_cycle;Max_cycle;Signal;HPM_P1;HPM_P2
2023/05/27 00:01:48;;;;;;;8.52;4.07;;;;;;;;;;6210947;23;20020;-81
2023/05/27 00:04:14;;;;;;;10.90;4.60;;;;;;;;;;6211781;23;20087;-82
2023/05/27 00:06:41;;;;;;;8.32;4.90;;;;;;;;;;6184306;23;20051;-81
2023/05/27 00:09:07;;;;;;;8.75;4.72;;;;;;;;;;6210958;23;20001;-82
2023/05/27 00:11:33;;;;;;;8.98;4.90;;;;;;;;;;6211068;23;20028;-82
2023/05/27 00:13:59;;;;;;;10.85;4.38;;;;;;;;;;6210965;23;20009;-82
2023/05/27 00:16:25;;;;;;;9.35;4.25;;;;;;;;;;6184412;23;20008;-82
2023/05/27 00:18:52;;;;;;;8.50;4.30;;;;;;;;;;6184096;23;20017;-82
2023/05/27 00:21:18;;;;;;;8.25;4.57;;;;;;;;;;6211563;23;20040;-82
2023/05/27 00:23:47;;;;;;;9.73;4.80;;;;;;;;;;6183623;23;20016;-82
2023/05/27 00:26:14;;;;;;;13.32;6.20;;;;;;;;;;6210859;23;19996;-82
2023/05/27 00:28:40;;;;;;;10.82;4.95;;;;;;;;;;6184011;23;20020;-82
2023/05/27 00:31:06;;;;;;;10.25;4.97;;;;;;;;;;6184365;23;20005;-81
2023/05/27 00:33:32;;;;;;;10.27;4.65;;;;;;;;;;6184376;23;20425;-81
2023/05/27 00:35:58;;;;;;;9.65;5.55;;;;;;;;;;6184114;23;20018;-81
2023/05/27 00:38:24;;;;;;;7.07;4.88;;;;;;;;;;6184071;23;20314;-81
2023/05/27 00:40:53;;;;;;;10.73;4.88;;;;;;;;;;6210376;23;20019;-81
2023/05/27 00:43:19;;;;;;;9.85;5.00;;;;;;;;;;6211568;23;20103;-82
2023/05/27 00:45:45;;;;;;;7.72;4.50;;;;;;;;;;6211088;23;20008;-81
2023/05/27 00:48:11;;;;;;;8.63;4.70;;;;;;;;;;6184141;23;20067;-82
2023/05/27 00:50:37;;;;;;;7.95;4.20;;;;;;;;;;6210772;23;20005;-81
2023/05/27 00:53:03;;;;;;;10.73;4.93;;;;;;;;;;6211605;23;20016;-82
2023/05/27 00:55:29;;;;;;;10.35;4.43;;;;;;;;;;6184122;23;20004;-81
2023/05/27 00:57:55;;;;;;;11.48;5.15;;;;;;;;;;6211878;23;20012;-82
2023/05/27 01:00:22;;;;;;;10.40;5.00;;;;;;;;;;6210724;23;20054;-81
2023/05/27 01:02:49;;;;;;;7.60;4.78;;;;;;;;;;6211348;23;20020;-82
2023/05/27 01:05:15;;;;;;;8.88;4.25;;;;;;;;;;6210436;23;20059;-82
2023/05/27 01:07:53;;;;;;;10.73;4.70;;;;;;;;;;6210848;23;20364;-82
2023/05/27 01:10:33;;;;;;;9.93;4.30;;;;;;;;;;6183640;23;20087;-82
2023/05/27 01:13:08;;;;;;;8.32;4.63;;;;;;;;;;6210912;23;20008;-81
2023/05/27 01:15:34;;;;;;;9.40;5.25;;;;;;;;;;6185443;23;20012;-82
2023/05/27 01:18:05;;;;;;;10.32;4.95;;;;;;;;;;6186002;23;20018;-82
2023/05/27 01:20:33;;;;;;;9.85;5.25;;;;;;;;;;6185781;23;20008;-82
2023/05/27 01:22:59;;;;;;;8.57;4.68;;;;;;;;;;6185947;23;20349;-82
2023/05/27 01:25:25;;;;;;;10.45;4.82;;;;;;;;;;6212853;23;20000;-82
2023/05/27 01:27:52;;;;;;;9.48;4.65;;;;;;;;;;6213123;23;20016;-81
2023/05/27 01:30:19;;;;;;;8.52;4.97;;;;;;;;;;6185954;23;20004;-82
2023/05/27 01:32:48;;;;;;;9.38;5.28;;;;;;;;;;6212996;23;20500;-81
2023/05/27 01:35:20;;;;;;;8.00;4.57;;;;;;;;;;6213477;23;20020;-81
2023/05/27 01:37:45;;;;;;;;;;;;;;;;;;6213348;23;20008;-81
2023/05/27 01:40:13;;;;;;;10.55;4.88;;;;;;;;;;6213285;23;20415;-81
2023/05/27 01:42:40;;;;;;;10.45;4.90;;;;;;;;;;6186102;23;20021;-81
2023/05/27 01:45:07;;;;;;;12.15;4.68;;;;;;;;;;6212742;23;20016;-81
2023/05/27 01:47:33;;;;;;;8.80;4.65;;;;;;;;;;6213442;23;20020;-81
2023/05/27 01:49:59;;;;;;;7.53;4.47;;;;;;;;;;6212473;23;20079;-81
2023/05/27 01:52:26;;;;;;;9.75;4.10;;;;;;;;;;6211930;23;20079;-81
2023/05/27 01:54:52;;;;;;;8.85;4.57;;;;;;;;;;6212492;23;20004;-81
2023/05/27 01:57:18;;;;;;;11.00;4.10;;;;;;;;;;6185509;23;20103;-81
2023/05/27 01:59:44;;;;;;;9.13;4.43;;;;;;;;;;6186206;23;20009;-82
2023/05/27 02:02:10;;;;;;;8.98;4.53;;;;;;;;;;6212456;23;20016;-81
2023/05/27 02:04:36;;;;;;;10.02;4.65;;;;;;;;;;6186072;23;20432;-82
2023/05/27 02:07:03;;;;;;;8.40;4.30;;;;;;;;;;6185133;23;20016;-82
2023/05/27 02:09:29;;;;;;;8.32;4.47;;;;;;;;;;6185524;23;20015;-81
2023/05/27 02:11:55;;;;;;;7.32;4.00;;;;;;;;;;6211817;23;20021;-81
2023/05/27 02:14:21;;;;;;;8.80;4.80;;;;;;;;;;6212438;23;20627;-81
2023/05/27 02:16:49;;;;;;;7.85;4.53;;;;;;;;;;6212301;23;20063;-81
2023/05/27 02:19:15;;;;;;;9.85;5.20;;;;;;;;;;6212877;23;20065;-81
2023/05/27 02:21:41;;;;;;;7.70;4.72;;;;;;;;;;6185336;23;20119;-81
2023/05/27 02:24:07;;;;;;;12.60;5.18;;;;;;;;;;6185378;23;20492;-81
2023/05/27 02:26:34;;;;;;;8.63;4.82;;;;;;;;;;6211461;23;20004;-81
2023/05/27 02:29:00;;;;;;;7.50;4.35;;;;;;;;;;6186034;23;20005;-81
2023/05/27 02:31:26;;;;;;;9.10;4.30;;;;;;;;;;6213086;23;20043;-81
2023/05/27 02:33:52;;;;;;;9.48;4.72;;;;;;;;;;6185544;23;20051;-81
2023/05/27 02:36:20;;;;;;;7.85;4.18;;;;;;;;;;6185596;23;20019;-81
2023/05/27 02:38:46;;;;;;;8.38;4.10;;;;;;;;;;6185431;23;20134;-81
2023/05/27 02:41:12;;;;;;;10.98;5.15;;;;;;;;;;6212258;23;20047;-81
2023/05/27 02:43:38;;;;;;;8.05;4.85;;;;;;;;;;6185496;23;20025;-81
2023/05/27 02:46:04;;;;;;;7.35;4.43;;;;;;;;;;6211915;23;20000;-81
2023/05/27 02:48:30;;;;;;;10.35;5.05;;;;;;;;;;6212625;23;20039;-82
2023/05/27 02:50:56;;;;;;;7.97;4.88;;;;;;;;;;6185337;23;20004;-81
2023/05/27 02:53:22;;;;;;;9.35;4.85;;;;;;;;;;6212658;23;20491;-81
2023/05/27 02:55:48;;;;;;;6.95;4.75;;;;;;;;;;6212246;23;20032;-81
2023/05/27 02:58:14;;;;;;;13.18;5.13;;;;;;;;;;6212510;23;20062;-81
2023/05/27 03:00:40;;;;;;;10.68;5.00;;;;;;;;;;6211665;23;20009;-81
2023/05/27 03:03:06;;;;;;;9.43;4.75;;;;;;;;;;6212263;23;20012;-81
2023/05/27 03:05:32;;;;;;;8.82;4.75;;;;;;;;;;6185098;23;20528;-82
2023/05/27 03:07:59;;;;;;;11.85;4.90;;;;;;;;;;6211727;23;20012;-81
2023/05/27 03:10:25;;;;;;;12.00;6.00;;;;;;;;;;6211867;23;19996;-81
2023/05/27 03:12:51;;;;;;;7.63;4.78;;;;;;;;;;6211508;23;20016;-81
2023/05/27 03:15:19;;;;;;;7.65;4.82;;;;;;;;;;6184726;23;20397;-81
2023/05/27 03:17:45;;;;;;;8.30;4.90;;;;;;;;;;6211557;23;20794;-82
2023/05/27 03:20:12;;;;;;;9.20;4.47;;;;;;;;;;6211951;23;20012;-81
2023/05/27 03:22:38;;;;;;;12.65;5.32;;;;;;;;;;6211804;23;20035;-81
2023/05/27 03:25:05;;;;;;;15.80;5.75;;;;;;;;;;6184941;23;20008;-81
2023/05/27 03:27:31;;;;;;;11.80;4.68;;;;;;;;;;6211606;23;20186;-81
2023/05/27 03:29:57;;;;;;;10.38;4.88;;;;;;;;;;6184455;23;20451;-81
2023/05/27 03:32:23;;;;;;;10.32;5.05;;;;;;;;;;6184852;23;20017;-81
2023/05/27 03:34:49;;;;;;;10.20;4.72;;;;;;;;;;6211537;23;20024;-81
2023/05/27 03:37:15;;;;;;;10.75;4.72;;;;;;;;;;6184462;23;20429;-81
2023/05/27 03:39:41;;;;;;;12.40;4.82;;;;;;;;;;6211722;23;20063;-81
2023/05/27 03:42:07;;;;;;;8.95;4.50;;;;;;;;;;6184766;23;20024;-81
2023/05/27 03:44:33;;;;;;;11.32;5.68;;;;;;;;;;6184677;23;20036;-81
2023/05/27 03:47:02;;;;;;;10.88;6.15;;;;;;;;;;6211394;23;20009;-81
2023/05/27 03:49:28;;;;;;;14.57;7.30;;;;;;;;;;6211660;23;20071;-81
2023/05/27 03:51:54;;;;;;;12.35;7.03;;;;;;;;;;6210994;23;20528;-81
2023/05/27 03:54:20;;;;;;;14.60;7.75;;;;;;;;;;6211922;23;20648;-81
2023/05/27 03:56:46;;;;;;;10.68;6.65;;;;;;;;;;6211654;23;20024;-81
2023/05/27 03:59:13;;;;;;;13.75;7.30;;;;;;;;;;6211571;23;20419;-81
2023/05/27 04:01:39;;;;;;;8.55;5.88;;;;;;;;;;6211148;23;20012;-81
2023/05/27 04:04:05;;;;;;;12.85;6.00;;;;;;;;;;6211398;23;20036;-81
2023/05/27 04:06:31;;;;;;;12.57;6.63;;;;;;;;;;6211123;23;20005;-81
2023/05/27 04:08:58;;;;;;;12.15;5.35;;;;;;;;;;6211148;23;20005;-81
2023/05/27 04:11:25;;;;;;;13.05;5.30;;;;;;;;;;6211174;23;20004;-81
2023/05/27 04:13:51;;;;;;;9.65;4.93;;;;;;;;;;6211941;23;20016;-81
2023/05/27 04:16:17;;;;;;;9.40;5.45;;;;;;;;;;6211969;23;20531;-81
2023/05/27 04:18:48;;;;;;;10.48;5.97;;;;;;;;;;6211505;23;20004;-81
2023/05/27 04:21:14;;;;;;;8.98;5.43;;;;;;;;;;6211528;23;20432;-81
2023/05/27 04:23:40;;;;;;;12.85;5.68;;;;;;;;;;6211842;23;20100;-81
2023/05/27 04:26:06;;;;;;;9.70;5.30;;;;;;;;;;6211864;23;20028;-81
2023/05/27 04:28:34;;;;;;;10.77;5.40;;;;;;;;;;6211429;23;20028;-81
2023/05/27 04:31:00;;;;;;;11.05;5.47;;;;;;;;;;6211762;23;20076;-81
2023/05/27 04:33:26;;;;;;;10.20;5.15;;;;;;;;;;6210904;23;20009;-81
2023/05/27 04:35:53;;;;;;;11.95;6.03;;;;;;;;;;6211364;23;20054;-81
2023/05/27 04:38:20;;;;;;;14.15;5.95;;;;;;;;;;6183826;23;20017;-81
2023/05/27 04:40:52;;;;;;;12.43;6.40;;;;;;;;;;6211336;23;20009;-81
2023/05/27 04:43:18;;;;;;;12.23;6.93;;;;;;;;;;6211221;23;20356;-81
2023/05/27 04:45:45;;;;;;;11.52;6.93;;;;;;;;;;6211511;23;20011;-81
2023/05/27 04:48:11;;;;;;;14.30;6.55;;;;;;;;;;6212829;23;20031;-81
2023/05/27 04:50:37;;;;;;;11.05;6.65;;;;;;;;;;6213650;23;20009;-81
2023/05/27 04:53:03;;;;;;;13.90;7.95;;;;;;;;;;6212267;23;20429;-81
2023/05/27 04:55:30;;;;;;;11.57;6.13;;;;;;;;;;6212826;23;20004;-81
2023/05/27 04:57:56;;;;;;;16.60;5.97;;;;;;;;;;6186231;23;20088;-81
2023/05/27 05:03:08;;;;;;;9.50;5.80;;;;;;;;;;6212973;23;20100;-81
2023/05/27 05:05:34;;;;;;;11.60;5.50;;;;;;;;;;6213112;23;20008;-81
2023/05/27 05:08:00;;;;;;;9.68;5.35;;;;;;;;;;6213209;23;20027;-81
2023/05/27 05:10:26;;;;;;;10.43;5.97;;;;;;;;;;6213156;23;20004;-81
2023/05/27 05:12:53;;;;;;;14.60;5.45;;;;;;;;;;6213572;23;20015;-81
2023/05/27 05:15:19;;;;;;;10.63;5.75;;;;;;;;;;6213399;23;20008;-81
2023/05/27 05:17:45;;;;;;;12.40;5.70;;;;;;;;;;6186264;23;20016;-81
2023/05/27 05:20:12;;;;;;;11.68;5.88;;;;;;;;;;6185630;23;20016;-81
2023/05/27 05:22:38;;;;;;;12.32;6.43;;;;;;;;;;6186162;23;20008;-81
2023/05/27 05:25:04;;;;;;;10.73;6.28;;;;;;;;;;6212946;23;20439;-81
2023/05/27 05:27:30;;;;;;;15.15;5.93;;;;;;;;;;6213226;23;20039;-81
2023/05/27 05:29:56;;;;;;;11.77;5.55;;;;;;;;;;6212820;23;20012;-81
2023/05/27 05:32:22;;;;;;;11.68;5.95;;;;;;;;;;6186205;23;20321;-81
2023/05/27 05:34:48;;;;;;;11.57;5.70;;;;;;;;;;6185230;23;20331;-81
2023/05/27 05:37:15;;;;;;;13.10;5.70;;;;;;;;;;6213184;23;20016;-81
2023/05/27 05:39:42;;;;;;;11.70;5.40;;;;;;;;;;6212665;23;20088;-81
2023/05/27 05:42:08;;;;;;;8.90;5.15;;;;;;;;;;6212921;23;20107;-81
2023/05/27 05:44:34;;;;;;;9.80;4.90;;;;;;;;;;6212537;23;20784;-82
2023/05/27 05:47:01;;;;;;;10.20;5.03;;;;;;;;;;6212884;23;20008;-82
2023/05/27 05:49:28;;;;;;;8.70;4.80;;;;;;;;;;6212588;23;20024;-82
2023/05/27 05:51:54;;;;;;;12.60;4.95;;;;;;;;;;6186040;23;20096;-81
2023/05/27 05:54:20;;;;;;;10.85;5.40;;;;;;;;;;6185700;23;20016;-81
2023/05/27 05:56:46;;;;;;;15.02;6.85;;;;;;;;;;6213283;23;20038;-82
2023/05/27 05:59:12;;;;;;;16.17;5.63;;;;;;;;;;6213314;23;20013;-82
2023/05/27 06:01:38;;;;;;;9.43;5.85;;;;;;;;;;6213754;23;20754;-81
2023/05/27 06:04:06;;;;;;;12.93;5.78;;;;;;;;;;6213791;23;20019;-84
2023/05/27 06:06:32;;;;;;;10.43;5.63;;;;;;;;;;6187833;23;20011;-82
2023/05/27 06:08:58;;;;;;;10.98;6.00;;;;;;;;;;6214684;23;20004;-83
2023/05/27 06:11:26;;;;;;;13.52;6.20;;;;;;;;;;6187694;23;20678;-82
2023/05/27 06:13:52;;;;;;;18.77;6.07;;;;;;;;;;6186030;23;20016;-83
2023/05/27 06:16:18;;;;;;;13.40;5.38;;;;;;;;;;6185846;23;20008;-82
2023/05/27 06:18:45;;;;;;;12.52;5.82;;;;;;;;;;6185271;23;20015;-83
2023/05/27 06:21:12;;;;;;;12.10;5.97;;;;;;;;;;6185756;23;20016;-82
2023/05/27 06:23:38;;;;;;;13.20;5.93;;;;;;;;;;6185152;23;20017;-83
2023/05/27 06:26:04;;;;;;;9.95;5.57;;;;;;;;;;6186080;23;20047;-84
2023/05/27 06:28:30;;;;;;;9.98;5.22;;;;;;;;;;6185467;23;20005;-84
2023/05/27 06:30:56;;;;;;;13.32;6.25;;;;;;;;;;6184823;23;20099;-84
2023/05/27 06:33:22;;;;;;;10.10;5.68;;;;;;;;;;6184998;23;20340;-83
2023/05/27 08:11:27;;;;;;;;;;;;;;;;;;;;;
2023/05/27 08:14:27;;;;;;;;;;;;;;;;;;;;;
2023/05/27 10:55:37;;;;;;;;;;;;;;;;;;;;;
2023/05/27 10:58:07;;;;;;;9.25;5.65;;;;;;;;;;6195873;23;20100;-82
2023/05/27 11:00:38;;;;;;;11.20;6.07;;;;;;;;;;6185170;23;20009;-82
2023/05/27 11:03:13;;;;;;;;;;;;;;;;;;6211409;23;20012;-81
2023/05/27 11:05:48;;;;;;;13.93;5.90;;;;;;;;;;6185378;23;19911;-82
2023/05/27 11:08:14;;;;;;;10.68;6.20;;;;;;;;;;6183635;23;20047;-82
2023/05/27 11:10:41;;;;;;;10.35;5.53;;;;;;;;;;6185688;23;20120;-83
2023/05/27 11:13:18;;;;;;;11.13;6.03;;;;;;;;;;6185017;23;20004;-82
2023/05/27 11:15:50;;;;;;;9.52;6.30;;;;;;;;;;6211413;23;20020;-82
2023/05/27 11:18:35;;;;;;;;;;;;;;;;;;;;;
2023/05/27 11:21:22;;;;;;;;;;;;;;;;;;;;;
2023/05/27 13:06:02;;;;;;;9.48;4.90;;;;;;;;;;6193761;22;20031;-83
2023/05/27 13:30:21;;;;;;;6.95;3.70;;;;;;;;;;6165416;23;20047;-84
2023/05/27 13:37:00;;;;;;;;;;;;;;;;;;;;;
2023/05/27 13:48:11;;;;;;;8.32;4.43;;;;;;;;;;6176407;23;20032;-82
2023/05/27 13:50:39;;;;;;;8.48;3.85;;;;;;;;;;6155723;23;20041;-82
2023/05/27 13:56:24;;;;;;;8.23;3.58;;;;;;;;;;6181490;23;20013;-81
2023/05/27 14:02:09;;;;;;;6.25;3.33;;;;;;;;;;6061473;23;20034;-80
2023/05/27 14:04:35;;;;;;;8.75;3.95;;;;;;;;;;6089331;23;20052;-84
2023/05/27 14:07:03;;;;;;;6.80;3.58;;;;;;;;;;6138513;23;20024;-83
2023/05/27 14:12:40;;;;;;;8.88;3.38;;;;;;;;;;6172116;23;20428;-82
2023/05/27 14:18:09;;;;;;;9.65;3.55;;;;;;;;;;6212433;23;20085;-82
2023/05/27 14:21:14;;;;;;;;;;;;;;;;;;;;;
2023/05/27 14:29:18;;;;;;;5.57;3.08;;;;;;;;;;6163588;23;20389;-82
2023/05/27 14:31:44;;;;;;;10.43;3.22;;;;;;;;;;6150166;23;20337;-83
2023/05/27 14:34:10;;;;;;;8.30;3.40;;;;;;;;;;6152095;23;20476;-83
2023/05/27 14:36:36;;;;;;;10.85;3.30;;;;;;;;;;6145528;23;20536;-82
2023/05/27 14:39:05;;;;;;;13.43;3.80;;;;;;;;;;6132046;23;20029;-82
2023/05/27 14:41:31;;;;;;;10.13;3.33;;;;;;;;;;6152941;23;20024;-82
2023/05/27 14:43:57;;;;;;;8.48;4.00;;;;;;;;;;6143465;23;20010;-86
2023/05/27 14:46:23;;;;;;;8.50;3.58;;;;;;;;;;6122871;23;20017;-86
2023/05/27 14:48:49;;;;;;;7.50;3.25;;;;;;;;;;6142041;23;20005;-82
2023/05/27 14:51:16;;;;;;;6.30;3.55;;;;;;;;;;6120717;23;20014;-83
2023/05/27 14:53:42;;;;;;;9.82;3.75;;;;;;;;;;6134668;23;20033;-84
2023/05/27 14:56:40;;;;;;;8.27;3.45;;;;;;;;;;6147788;23;20043;-83
2023/05/27 14:59:39;;;;;;;10.18;3.42;;;;;;;;;;6149199;23;20377;-81
2023/05/27 15:05:29;;;;;;;;;;;;;;;;;;;;;
2023/05/27 15:07:58;;;;;;;8.52;3.30;;;;;;;;;;6150109;23;20273;-81
2023/05/27 15:11:07;;;;;;;6.68;3.70;;;;;;;;;;6149557;23;20005;-81
2023/05/27 15:13:46;;;;;;;9.63;3.95;;;;;;;;;;6087772;23;20445;-81
2023/05/27 15:16:36;;;;;;;14.73;4.28;;;;;;;;;;6052103;23;20019;-81
2023/05/27 15:22:16;;;;;;;9.48;3.67;;;;;;;;;;6082775;23;20024;-81
2023/05/27 15:24:47;;;;;;;8.82;3.83;;;;;;;;;;6088634;23;20018;-81
2023/05/27 15:27:33;;;;;;;8.68;4.43;;;;;;;;;;6088694;23;20489;-81
2023/05/27 15:30:14;;;;;;;8.05;3.85;;;;;;;;;;6089858;23;20014;-83
2023/05/27 15:32:45;;;;;;;8.43;3.83;;;;;;;;;;6088439;23;20081;-82
2023/05/27 15:35:20;;;;;;;6.53;3.67;;;;;;;;;;6064363;23;20018;-82
2023/05/27 15:37:52;;;;;;;10.10;3.58;;;;;;;;;;6099433;23;20249;-82
2023/05/27 15:40:20;;;;;;;8.18;3.55;;;;;;;;;;6149723;23;20028;-82
2023/05/27 15:42:46;;;;;;;7.05;3.53;;;;;;;;;;6149834;23;20018;-82
2023/05/27 15:45:20;;;;;;;9.60;3.97;;;;;;;;;;6148833;23;20006;-82
2023/05/27 15:47:49;;;;;;;5.80;3.33;;;;;;;;;;6150303;23;20352;-82
2023/05/27 15:50:17;;;;;;;13.57;4.00;;;;;;;;;;6149247;23;20009;-83
2023/05/27 15:52:47;;;;;;;7.80;3.65;;;;;;;;;;6151595;23;20089;-83
2023/05/27 15:55:16;;;;;;;8.00;4.07;;;;;;;;;;6148770;23;20009;-82
2023/05/27 15:57:45;;;;;;;9.52;4.05;;;;;;;;;;6148776;23;20033;-82
2023/05/27 16:00:14;;;;;;;7.80;4.40;;;;;;;;;;6150579;23;20005;-82
2023/05/27 16:02:46;;;;;;;8.13;3.83;;;;;;;;;;6149901;23;20013;-82
2023/05/27 16:05:18;;;;;;;9.40;3.95;;;;;;;;;;6147698;23;20045;-82
2023/05/27 16:07:44;;;;;;;9.05;4.05;;;;;;;;;;6142929;23;20053;-82
2023/05/27 16:10:13;;;;;;;12.38;4.40;;;;;;;;;;6143185;23;20013;-82
2023/05/27 16:25:53;;;;;;;8.57;4.20;;;;;;;;;;6178958;23;20456;-84
2023/05/27 16:42:49;;;;;;;12.68;5.38;;;;;;;;;;6121562;23;20324;-84
2023/05/27 16:45:15;;;;;;;13.88;5.60;;;;;;;;;;6119327;23;20057;-83
2023/05/27 16:47:43;;;;;;;10.00;5.25;;;;;;;;;;6121876;23;20006;-84
2023/05/27 16:50:11;;;;;;;12.00;4.85;;;;;;;;;;6095012;23;20049;-84
2023/05/27 16:52:37;;;;;;;8.40;4.25;;;;;;;;;;6096262;23;20066;-87
2023/05/27 16:55:04;;;;;;;10.13;4.22;;;;;;;;;;6094489;23;20038;-83
2023/05/27 16:57:30;;;;;;;9.60;4.45;;;;;;;;;;6095933;23;20018;-84
2023/05/27 17:02:50;;;;;;;8.02;4.82;;;;;;;;;;6175197;23;20025;-82
2023/05/27 17:05:17;;;;;;;7.68;4.05;;;;;;;;;;6149766;23;20024;-87
2023/05/27 17:08:13;;;;;;;13.63;4.60;;;;;;;;;;6152854;23;20013;-84
2023/05/27 17:47:20;;;;;;;13.40;9.18;;;;;;;;;;6178688;23;20033;-86
2023/05/27 17:50:47;;;;;;;;;;;;;;;;;;6181814;23;20013;-84
2023/05/27 17:58:25;;;;;;;19.42;12.50;;;;;;;;;;6184309;22;20024;-83
2023/05/27 18:06:08;;;;;;;20.88;12.20;;;;;;;;;;6177286;23;20060;-85
2023/05/27 18:11:44;;;;;;;13.27;6.22;;;;;;;;;;6182152;23;20040;-85
2023/05/27 18:14:18;;;;;;;10.65;5.22;;;;;;;;;;6179032;23;20111;-85
2023/05/27 18:16:51;;;;;;;11.32;5.25;;;;;;;;;;6178475;23;20028;-84
2023/05/27 18:19:27;;;;;;;10.40;5.82;;;;;;;;;;6155910;23;20024;-84
2023/05/27 18:21:58;;;;;;;11.40;5.25;;;;;;;;;;6179003;23;20025;-84
2023/05/27 18:24:25;;;;;;;14.48;5.45;;;;;;;;;;6179767;23;20020;-84
2023/05/27 18:26:52;;;;;;;10.70;5.45;;;;;;;;;;6180123;23;20756;-84
2023/05/27 18:29:20;;;;;;;8.02;5.05;;;;;;;;;;6179601;23;20009;-84
2023/05/27 18:31:47;;;;;;;10.73;4.50;;;;;;;;;;6154963;23;20017;-84
2023/05/27 18:34:15;;;;;;;9.23;4.90;;;;;;;;;;6179451;23;20012;-84
2023/05/27 18:36:42;;;;;;;10.32;4.90;;;;;;;;;;6180444;23;20047;-84
2023/05/27 18:39:08;;;;;;;8.38;4.95;;;;;;;;;;6181619;23;20012;-83
2023/05/27 18:41:34;;;;;;;10.73;5.30;;;;;;;;;;6180880;23;20032;-84
2023/05/27 18:44:03;;;;;;;11.52;5.47;;;;;;;;;;6179722;23;20017;-84
2023/05/27 18:46:34;;;;;;;8.02;5.75;;;;;;;;;;6182554;23;20036;-84
2023/05/27 18:49:06;;;;;;;10.50;4.80;;;;;;;;;;6181728;23;20009;-83
2023/05/27 18:51:32;;;;;;;9.98;5.03;;;;;;;;;;6181558;23;20013;-84
2023/05/27 18:53:58;;;;;;;12.07;4.78;;;;;;;;;;6154324;23;20013;-84
2023/05/27 18:56:30;;;;;;;14.13;6.65;;;;;;;;;;6180006;23;20100;-84
2023/05/27 18:58:59;;;;;;;10.25;7.00;;;;;;;;;;6154567;23;20021;-84
2023/05/27 19:01:25;;;;;;;13.98;6.65;;;;;;;;;;6181905;23;20005;-84
2023/05/27 19:03:53;;;;;;;12.43;7.00;;;;;;;;;;6179646;23;20451;-84
2023/05/27 19:06:21;;;;;;;12.25;7.00;;;;;;;;;;6210529;23;20016;-84
2023/05/27 19:08:47;;;;;;;13.38;6.28;;;;;;;;;;6184063;23;20017;-84
2023/05/27 19:11:19;;;;;;;11.57;5.50;;;;;;;;;;6184941;23;19997;-84
2023/05/27 19:13:47;;;;;;;15.30;5.45;;;;;;;;;;6183794;23;20428;-84
2023/05/27 19:16:13;;;;;;;14.95;5.45;;;;;;;;;;6185371;23;20012;-84
2023/05/27 19:18:53;;;;;;;14.75;5.35;;;;;;;;;;6211353;23;20016;-84
2023/05/27 19:21:22;;;;;;;12.40;4.80;;;;;;;;;;6211706;23;20012;-84
2023/05/27 19:23:48;;;;;;;11.45;4.90;;;;;;;;;;6184337;23;20016;-84
2023/05/27 19:26:30;;;;;;;7.22;4.28;;;;;;;;;;6185807;23;20004;-83
2023/05/27 19:29:15;;;;;;;7.72;4.38;;;;;;;;;;6182780;23;20027;-83
2023/05/27 19:35:41;;;;;;;11.70;5.05;;;;;;;;;;6060401;23;20065;-83
2023/05/27 19:38:36;;;;;;;8.50;4.47;;;;;;;;;;6059985;23;20101;-84
2023/05/27 19:41:11;;;;;;;9.77;4.40;;;;;;;;;;6035878;23;20055;-83
2023/05/27 19:47:22;;;;;;;;;;;;;;;;;;;;;
2023/05/27 19:49:55;;;;;;;8.48;4.65;;;;;;;;;;6177948;23;20039;-84
2023/05/27 19:52:26;;;;;;;13.10;4.82;;;;;;;;;;6147198;23;20016;-84
2023/05/27 19:55:45;;;;;;;7.67;4.10;;;;;;;;;;6148218;23;20018;-84
2023/05/27 19:58:29;;;;;;;7.95;3.80;;;;;;;;;;6092792;23;20017;-83
2023/05/27 20:01:01;;;;;;;10.30;4.55;;;;;;;;;;6093568;23;20032;-84
2023/05/27 20:03:38;;;;;;;9.02;4.15;;;;;;;;;;6117930;23;20068;-83
2023/05/27 20:06:24;;;;;;;8.15;3.67;;;;;;;;;;6147769;23;20056;-83
2023/05/27 20:12:13;;;;;;;10.93;5.13;;;;;;;;;;6147514;23;20515;-83
2023/05/27 20:14:55;;;;;;;;;;;;;;;;;;;;;
2023/05/27 20:17:44;;;;;;;14.82;5.05;;;;;;;;;;6166802;23;20096;-83
2023/05/27 20:20:20;;;;;;;12.27;5.68;;;;;;;;;;6177870;23;20072;-83
2023/05/27 20:22:54;;;;;;;12.65;5.00;;;;;;;;;;6166103;23;20020;-84
2023/05/27 20:25:23;;;;;;;14.80;5.78;;;;;;;;;;6184562;23;20794;-83
2023/05/27 20:28:08;;;;;;;;;;;;;;;;;;;;;
2023/05/27 20:30:37;;;;;;;8.57;4.13;;;;;;;;;;6211300;23;20083;-84
2023/05/27 20:33:16;;;;;;;;;;;;;;;;;;;;;
2023/05/27 20:35:47;;;;;;;12.13;4.55;;;;;;;;;;6211121;23;20084;-83
2023/05/27 20:38:19;;;;;;;14.60;4.80;;;;;;;;;;6183665;23;20487;-84
2023/05/27 20:40:47;;;;;;;12.38;6.57;;;;;;;;;;6211604;23;20013;-83
2023/05/27 20:43:13;;;;;;;16.27;9.57;;;;;;;;;;6183622;23;20023;-83
2023/05/27 20:45:42;;;;;;;10.63;5.18;;;;;;;;;;6184485;23;20067;-83
2023/05/27 20:48:19;;;;;;;9.27;5.13;;;;;;;;;;6210786;23;20007;-84
2023/05/27 20:50:47;;;;;;;10.00;5.70;;;;;;;;;;6211207;23;20020;-84
2023/05/27 20:53:16;;;;;;;13.07;6.72;;;;;;;;;;6183397;23;20428;-83
2023/05/27 20:55:47;;;;;;;10.95;6.43;;;;;;;;;;6184588;23;20111;-83
2023/05/27 20:58:39;;;;;;;10.38;5.32;;;;;;;;;;6182576;23;20376;-83
2023/05/27 21:01:05;;;;;;;12.43;6.45;;;;;;;;;;6183797;23;20012;-85
2023/05/27 21:03:43;;;;;;;19.52;11.93;;;;;;;;;;6183640;23;20385;-83
2023/05/27 21:07:08;;;;;;;;;;;;;;;;;;;;;
2023/05/27 21:23:10;;;;;;;8.65;4.95;;;;;;;;;;6148470;23;20550;-84
2023/05/27 21:25:39;;;;;;;8.70;4.25;;;;;;;;;;6147570;23;20027;-83
2023/05/27 21:28:16;;;;;;;10.02;4.63;;;;;;;;;;6152477;23;20080;-83
2023/05/27 21:30:47;;;;;;;8.02;4.90;;;;;;;;;;6153659;23;20123;-83
2023/05/27 21:33:52;;;;;;;6.13;4.20;;;;;;;;;;6155957;23;20033;-83
2023/05/27 21:39:51;;;;;;;;;;;;;;;;;;;;;
2023/05/27 21:45:41;;;;;;;9.45;5.03;;;;;;;;;;6163644;23;20092;-83
2023/05/27 21:48:30;;;;;;;11.68;5.32;;;;;;;;;;6155168;23;20005;-83
2023/05/27 21:50:59;;;;;;;13.30;5.63;;;;;;;;;;6182232;23;20005;-83
2023/05/27 21:53:59;;;;;;;11.10;4.85;;;;;;;;;;6155728;23;20099;-83
2023/05/27 21:56:40;;;;;;;11.57;5.70;;;;;;;;;;6181504;23;20009;-84
2023/05/27 22:02:16;;;;;;;12.77;5.43;;;;;;;;;;6031747;23;20976;-83
2023/05/27 22:04:44;;;;;;;13.98;5.25;;;;;;;;;;6155693;23;20013;-83
2023/05/27 22:07:13;;;;;;;11.38;5.90;;;;;;;;;;6155171;23;20013;-83
2023/05/27 22:09:44;;;;;;;8.55;4.95;;;;;;;;;;6182035;23;20051;-83
2023/05/27 22:12:12;;;;;;;9.20;5.00;;;;;;;;;;6154784;23;20476;-83
2023/05/27 22:14:44;;;;;;;9.15;4.03;;;;;;;;;;6155828;23;20021;-83
2023/05/27 22:17:10;;;;;;;;;;;;;;;;;;6182244;23;20028;-84
2023/05/27 22:19:39;;;;;;;8.00;4.43;;;;;;;;;;6155553;23;19992;-83
2023/05/27 22:22:05;;;;;;;9.02;4.63;;;;;;;;;;6149432;23;20022;-83
2023/05/27 22:24:37;;;;;;;8.80;4.85;;;;;;;;;;6125860;23;20425;-83
2023/05/27 22:27:08;;;;;;;8.75;4.20;;;;;;;;;;6126101;23;20012;-83
2023/05/27 22:29:37;;;;;;;10.43;4.55;;;;;;;;;;6126371;23;20120;-83
2023/05/27 22:32:03;;;;;;;10.02;4.70;;;;;;;;;;6125662;23;20049;-83
2023/05/27 22:34:35;;;;;;;12.18;4.65;;;;;;;;;;6153031;23;20033;-83
2023/05/27 22:37:09;;;;;;;;;;;;;;;;;;6125798;23;20064;-83
2023/05/27 22:39:35;;;;;;;10.93;5.10;;;;;;;;;;6125817;23;19904;-83
2023/05/27 22:42:01;;;;;;;10.77;4.78;;;;;;;;;;6151555;23;20059;-83
2023/05/27 22:44:27;;;;;;;7.70;4.68;;;;;;;;;;6152814;23;20631;-83
2023/05/27 22:46:53;;;;;;;12.00;4.75;;;;;;;;;;6125443;23;20009;-83
2023/05/27 22:49:19;;;;;;;12.60;5.28;;;;;;;;;;6152338;23;20005;-83
2023/05/27 22:51:45;;;;;;;11.73;5.13;;;;;;;;;;6152711;23;20134;-83
2023/05/27 22:54:11;;;;;;;9.05;4.97;;;;;;;;;;6150850;23;20017;-83
2023/05/27 22:56:38;;;;;;;7.47;4.60;;;;;;;;;;6152416;23;20716;-84
2023/05/27 22:59:04;;;;;;;9.00;4.50;;;;;;;;;;6151331;23;20799;-83
2023/05/27 23:01:30;;;;;;;10.48;4.57;;;;;;;;;;6152214;23;20009;-83
2023/05/27 23:03:56;;;;;;;9.30;4.57;;;;;;;;;;6124994;23;20021;-83
2023/05/27 23:06:22;;;;;;;8.93;5.13;;;;;;;;;;6126486;23;20014;-83
2023/05/27 23:08:48;;;;;;;8.48;4.50;;;;;;;;;;6151489;23;20006;-82
2023/05/27 23:11:15;;;;;;;10.07;4.28;;;;;;;;;;6152035;23;20005;-82
2023/05/27 23:13:41;;;;;;;10.13;4.45;;;;;;;;;;6125090;23;20014;-83
2023/05/27 23:16:07;;;;;;;7.45;4.57;;;;;;;;;;6152438;23;20066;-82
2023/05/27 23:18:36;;;;;;;10.38;5.32;;;;;;;;;;6125191;23;20013;-83
2023/05/27 23:21:03;;;;;;;13.27;4.60;;;;;;;;;;6125988;23;20014;-82
2023/05/27 23:23:30;;;;;;;10.43;5.28;;;;;;;;;;6151773;23;20464;-83
2023/05/27 23:25:56;;;;;;;12.88;5.22;;;;;;;;;;6151654;23;20694;-83
2023/05/27 23:28:22;;;;;;;8.52;4.53;;;;;;;;;;6152362;23;20001;-83
2023/05/27 23:30:48;;;;;;;10.25;5.05;;;;;;;;;;6125116;23;20041;-83
2023/05/27 23:33:14;;;;;;;7.30;5.00;;;;;;;;;;6152224;23;20002;-83
2023/05/27 23:35:40;;;;;;;9.13;5.32;;;;;;;;;;6150903;23;20021;-83
2023/05/27 23:38:06;;;;;;;7.65;4.95;;;;;;;;;;6125684;23;20027;-83
2023/05/27 23:40:32;;;;;;;9.25;4.90;;;;;;;;;;6150396;23;20421;-83
2023/05/27 23:42:58;;;;;;;10.00;4.65;;;;;;;;;;6126101;23;20009;-83
2023/05/27 23:45:24;;;;;;;13.48;4.68;;;;;;;;;;6124685;23;20009;-82
2023/05/27 23:47:51;;;;;;;10.00;4.55;;;;;;;;;;6151621;23;20006;-82
2023/05/27 23:50:17;;;;;;;9.38;4.75;;;;;;;;;;6124992;23;20005;-83
2023/05/27 23:52:43;;;;;;;10.57;4.78;;;;;;;;;;6152020;23;20009;-82
2023/05/27 23:55:10;;;;;;;7.68;4.28;;;;;;;;;;6124352;23;20019;-83
2023/05/27 23:57:36;;;;;;;9.05;4.63;;;;;;;;;;6152282;23;20715;-83
